KZR215 UACC-LTAI
Flight info
| Callsign | KZR215 |
|---|---|
| Flight time | N/A |
| Altitude | 36000 |
| Route | VETUB6G VETUB P574 OGANU N55 MASAV N161 GASBI/N0453F380 N161 LEYLA T916 SUBUT N996 PEMAN N161 INDUR UB374 ERZ UA4 SIV UA285 SELVI/N0454F390 UA285 MUT/N0457F380 UR55 KONAK |
| Aircraft | A20N/M-SDE2E3FGHIRWXY/LB1 |
Departure
| Time | 2026-05-01 09:16 |
|---|---|
| Airport | Nursultan Nazarbayev International Airport (UACC) |
Arrival
| Time | N/A |
|---|---|
| Airport | Antalya International Airport (LTAI) |
| Time | Latitude | Longitude | Altitude | Speed | Heading |
|---|---|---|---|---|---|
| 2026-05-01 08:50 | 51.02716 | 71.46322 | 1167 ft | 0 kts | 315° |
| 2026-05-01 08:50 | 51.02680 | 71.46305 | 1167 ft | 0 kts | 315° |
| 2026-05-01 08:51 | 51.02690 | 71.46279 | 1166 ft | 0 kts | 315° |
| 2026-05-01 09:00 | 51.02687 | 71.46285 | 1167 ft | 2 kts | 315° |
| 2026-05-01 09:01 | 51.02676 | 71.46301 | 1167 ft | 2 kts | 314° |
| 2026-05-01 09:01 | 51.02665 | 71.46319 | 1167 ft | 2 kts | 314° |
| 2026-05-01 09:01 | 51.02655 | 71.46330 | 1167 ft | 2 kts | 348° |
| 2026-05-01 09:01 | 51.02640 | 71.46330 | 1167 ft | 2 kts | 18° |
| 2026-05-01 09:02 | 51.02629 | 71.46320 | 1167 ft | 0 kts | 42° |
| 2026-05-01 09:02 | 51.02624 | 71.46312 | 1166 ft | 1 kts | 46° |
| 2026-05-01 09:02 | 51.02624 | 71.46311 | 1166 ft | 0 kts | 46° |
| 2026-05-01 09:06 | 51.02669 | 71.46385 | 1168 ft | 12 kts | 43° |
| 2026-05-01 09:06 | 51.02699 | 71.46510 | 1168 ft | 12 kts | 82° |
| 2026-05-01 09:06 | 51.02690 | 71.46632 | 1168 ft | 9 kts | 129° |
| 2026-05-01 09:07 | 51.02649 | 71.46716 | 1167 ft | 10 kts | 115° |
| 2026-05-01 09:07 | 51.02678 | 71.46825 | 1165 ft | 12 kts | 47° |
| 2026-05-01 09:07 | 51.02720 | 71.46886 | 1165 ft | 11 kts | 42° |
| 2026-05-01 09:07 | 51.02804 | 71.47019 | 1164 ft | 14 kts | 45° |
| 2026-05-01 09:08 | 51.02877 | 71.47130 | 1164 ft | 14 kts | 44° |
| 2026-05-01 09:08 | 51.02952 | 71.47250 | 1163 ft | 18 kts | 45° |
| 2026-05-01 09:08 | 51.03049 | 71.47401 | 1161 ft | 19 kts | 45° |
| 2026-05-01 09:08 | 51.03143 | 71.47550 | 1161 ft | 19 kts | 45° |
| 2026-05-01 09:09 | 51.03236 | 71.47696 | 1161 ft | 18 kts | 44° |
| 2026-05-01 09:09 | 51.03328 | 71.47839 | 1161 ft | 18 kts | 41° |
| 2026-05-01 09:09 | 51.03394 | 71.47940 | 1161 ft | 9 kts | 46° |
| 2026-05-01 09:09 | 51.03428 | 71.48094 | 1161 ft | 21 kts | 79° |
| 2026-05-01 09:10 | 51.03427 | 71.48240 | 1161 ft | 10 kts | 95° |
| 2026-05-01 09:10 | 51.03413 | 71.48290 | 1161 ft | 0 kts | 133° |
| 2026-05-01 09:14 | 51.03390 | 71.48326 | 1161 ft | 15 kts | 135° |
| 2026-05-01 09:14 | 51.03347 | 71.48330 | 1161 ft | 6 kts | 223° |
| 2026-05-01 09:14 | 51.03313 | 71.48277 | 1161 ft | 7 kts | 225° |
| 2026-05-01 09:15 | 51.03225 | 71.48135 | 1161 ft | 46 kts | 223° |
| 2026-05-01 09:15 | 51.02815 | 71.47500 | 1162 ft | 115 kts | 225° |
| 2026-05-01 09:15 | 51.02605 | 71.47163 | 1165 ft | 135 kts | 224° |
| 2026-05-01 09:16 | 51.00615 | 71.43958 | 2510 ft | 158 kts | 221° |
| 2026-05-01 09:16 | 50.99838 | 71.42718 | 3121 ft | 163 kts | 221° |
| 2026-05-01 09:16 | 50.99006 | 71.41402 | 3562 ft | 181 kts | 222° |
| 2026-05-01 09:17 | 50.97060 | 71.38321 | 4530 ft | 218 kts | 222° |
| 2026-05-01 09:17 | 50.96023 | 71.36366 | 4962 ft | 245 kts | 240° |
| 2026-05-01 09:17 | 50.96340 | 71.30740 | 6360 ft | 282 kts | 289° |
| 2026-05-01 09:18 | 50.97074 | 71.27898 | 7260 ft | 284 kts | 287° |
| 2026-05-01 09:18 | 50.97978 | 71.21899 | 9105 ft | 280 kts | 262° |
| 2026-05-01 09:19 | 50.97338 | 71.15855 | 10692 ft | 288 kts | 256° |
| 2026-05-01 09:19 | 50.96961 | 71.12643 | 11128 ft | 306 kts | 257° |
| 2026-05-01 09:19 | 50.96589 | 71.09248 | 11517 ft | 324 kts | 257° |
| 2026-05-01 09:20 | 50.95839 | 71.01936 | 12670 ft | 345 kts | 258° |
| 2026-05-01 09:20 | 50.95089 | 70.94398 | 14226 ft | 351 kts | 258° |
| 2026-05-01 09:21 | 50.94320 | 70.86702 | 15659 ft | 358 kts | 257° |
| 2026-05-01 09:21 | 50.93931 | 70.82825 | 16372 ft | 360 kts | 257° |
| 2026-05-01 09:21 | 50.92507 | 70.75275 | 17722 ft | 360 kts | 240° |
| 2026-05-01 09:22 | 50.90178 | 70.69484 | 18882 ft | 361 kts | 232° |
| 2026-05-01 09:22 | 50.89752 | 70.68530 | 19064 ft | 362 kts | 232° |